sensor_id;sensor_type;location;lat;lon;timestamp;pressure;altitude;pressure_sealevel;temperature;humidity
43039;BME280;62252;50.668;19.530;2022-11-03T00:02:40;98766.53;;;7.09;100.00
43039;BME280;62252;50.668;19.530;2022-11-03T00:05:16;98757.38;;;7.21;100.00
43039;BME280;62252;50.668;19.530;2022-11-03T00:08:02;98762.22;;;7.08;100.00
43039;BME280;62252;50.668;19.530;2022-11-03T00:10:35;98770.94;;;6.61;100.00
43039;BME280;62252;50.668;19.530;2022-11-03T00:13:08;98770.28;;;6.79;100.00
43039;BME280;62252;50.668;19.530;2022-11-03T00:15:47;98768.66;;;6.52;100.00
43039;BME280;62252;50.668;19.530;2022-11-03T00:18:21;98758.19;;;7.00;100.00
43039;BME280;62252;50.668;19.530;2022-11-03T00:21:01;98764.13;;;6.80;100.00
43039;BME280;62252;50.668;19.530;2022-11-03T00:23:36;98764.03;;;6.83;100.00
43039;BME280;62252;50.668;19.530;2022-11-03T00:26:12;98765.91;;;6.55;100.00
43039;BME280;62252;50.668;19.530;2022-11-03T00:28:48;98756.28;;;6.57;100.00
43039;BME280;62252;50.668;19.530;2022-11-03T00:31:23;98759.47;;;6.65;100.00
43039;BME280;62252;50.668;19.530;2022-11-03T00:33:57;98764.50;;;6.94;100.00
43039;BME280;62252;50.668;19.530;2022-11-03T00:36:36;98761.94;;;6.45;100.00
43039;BME280;62252;50.668;19.530;2022-11-03T00:39:10;98761.44;;;6.59;100.00
43039;BME280;62252;50.668;19.530;2022-11-03T00:41:44;98768.53;;;6.55;100.00
43039;BME280;62252;50.668;19.530;2022-11-03T00:44:21;98764.22;;;6.54;100.00
43039;BME280;62252;50.668;19.530;2022-11-03T00:46:58;98765.28;;;6.49;100.00
43039;BME280;62252;50.668;19.530;2022-11-03T00:49:31;98765.75;;;6.60;100.00
43039;BME280;62252;50.668;19.530;2022-11-03T00:52:07;98767.75;;;6.29;100.00
43039;BME280;62252;50.668;19.530;2022-11-03T00:54:41;98765.53;;;6.15;100.00
43039;BME280;62252;50.668;19.530;2022-11-03T00:57:14;98767.28;;;6.42;100.00
43039;BME280;62252;50.668;19.530;2022-11-03T00:59:47;98772.19;;;6.25;100.00
43039;BME280;62252;50.668;19.530;2022-11-03T01:02:20;98768.78;;;5.97;100.00
43039;BME280;62252;50.668;19.530;2022-11-03T01:04:54;98767.31;;;6.41;100.00
43039;BME280;62252;50.668;19.530;2022-11-03T01:07:42;98768.13;;;6.67;100.00
43039;BME280;62252;50.668;19.530;2022-11-03T01:10:15;98777.72;;;6.67;100.00
43039;BME280;62252;50.668;19.530;2022-11-03T01:12:49;98793.59;;;6.36;100.00
43039;BME280;62252;50.668;19.530;2022-11-03T01:15:27;98775.88;;;6.44;100.00
43039;BME280;62252;50.668;19.530;2022-11-03T01:18:01;98780.72;;;6.56;100.00
43039;BME280;62252;50.668;19.530;2022-11-03T01:20:34;98788.94;;;6.18;100.00
43039;BME280;62252;50.668;19.530;2022-11-03T01:23:10;98786.06;;;5.75;100.00
43039;BME280;62252;50.668;19.530;2022-11-03T01:25:43;98787.84;;;5.73;100.00
43039;BME280;62252;50.668;19.530;2022-11-03T01:28:16;98786.13;;;6.00;100.00
43039;BME280;62252;50.668;19.530;2022-11-03T01:30:49;98780.25;;;5.93;100.00
43039;BME280;62252;50.668;19.530;2022-11-03T01:33:23;98784.97;;;6.34;100.00
43039;BME280;62252;50.668;19.530;2022-11-03T01:35:57;98775.41;;;5.81;100.00
43039;BME280;62252;50.668;19.530;2022-11-03T01:38:34;98773.78;;;5.77;100.00
43039;BME280;62252;50.668;19.530;2022-11-03T01:41:16;98776.13;;;6.12;100.00
43039;BME280;62252;50.668;19.530;2022-11-03T01:43:51;98782.03;;;5.65;100.00
43039;BME280;62252;50.668;19.530;2022-11-03T01:46:40;98782.34;;;6.08;100.00
43039;BME280;62252;50.668;19.530;2022-11-03T01:49:18;98785.22;;;6.27;100.00
43039;BME280;62252;50.668;19.530;2022-11-03T01:51:55;98776.06;;;5.88;100.00
43039;BME280;62252;50.668;19.530;2022-11-03T01:54:34;98774.03;;;5.97;100.00
43039;BME280;62252;50.668;19.530;2022-11-03T01:57:12;98777.00;;;5.85;100.00
43039;BME280;62252;50.668;19.530;2022-11-03T01:59:47;98765.19;;;6.01;100.00
43039;BME280;62252;50.668;19.530;2022-11-03T02:02:24;98774.31;;;5.88;100.00
43039;BME280;62252;50.668;19.530;2022-11-03T02:04:59;98768.28;;;6.12;100.00
43039;BME280;62252;50.668;19.530;2022-11-03T02:07:37;98769.84;;;5.92;100.00
43039;BME280;62252;50.668;19.530;2022-11-03T02:10:15;98764.88;;;5.84;100.00
43039;BME280;62252;50.668;19.530;2022-11-03T02:12:49;98759.13;;;5.47;100.00
43039;BME280;62252;50.668;19.530;2022-11-03T02:15:23;98764.34;;;5.47;100.00
43039;BME280;62252;50.668;19.530;2022-11-03T02:17:57;98757.13;;;5.55;100.00
43039;BME280;62252;50.668;19.530;2022-11-03T02:20:34;98763.75;;;5.65;100.00
43039;BME280;62252;50.668;19.530;2022-11-03T02:26:05;98756.28;;;5.55;100.00
43039;BME280;62252;50.668;19.530;2022-11-03T02:28:41;98760.91;;;5.45;100.00
43039;BME280;62252;50.668;19.530;2022-11-03T02:31:18;98764.41;;;5.44;100.00
43039;BME280;62252;50.668;19.530;2022-11-03T02:33:59;98762.72;;;5.43;100.00
43039;BME280;62252;50.668;19.530;2022-11-03T02:36:40;98768.38;;;5.57;100.00
43039;BME280;62252;50.668;19.530;2022-11-03T02:39:21;98772.03;;;5.52;100.00
43039;BME280;62252;50.668;19.530;2022-11-03T02:41:59;98758.69;;;5.33;100.00
43039;BME280;62252;50.668;19.530;2022-11-03T02:44:36;98761.28;;;5.33;100.00
43039;BME280;62252;50.668;19.530;2022-11-03T02:47:11;98762.56;;;5.20;100.00
43039;BME280;62252;50.668;19.530;2022-11-03T02:49:45;98760.44;;;5.33;100.00
43039;BME280;62252;50.668;19.530;2022-11-03T02:52:35;98753.56;;;5.30;100.00
43039;BME280;62252;50.668;19.530;2022-11-03T02:55:12;98756.84;;;5.64;100.00
43039;BME280;62252;50.668;19.530;2022-11-03T02:57:53;98766.50;;;5.04;100.00
43039;BME280;62252;50.668;19.530;2022-11-03T03:00:30;98750.31;;;5.22;100.00
43039;BME280;62252;50.668;19.530;2022-11-03T03:03:07;98761.25;;;5.62;100.00
43039;BME280;62252;50.668;19.530;2022-11-03T03:05:43;98764.22;;;6.04;100.00
43039;BME280;62252;50.668;19.530;2022-11-03T03:08:18;98766.97;;;5.18;100.00
43039;BME280;62252;50.668;19.530;2022-11-03T03:10:53;98774.19;;;4.79;100.00
43039;BME280;62252;50.668;19.530;2022-11-03T03:13:30;98766.91;;;4.90;100.00
43039;BME280;62252;50.668;19.530;2022-11-03T03:16:09;98781.31;;;5.03;100.00
43039;BME280;62252;50.668;19.530;2022-11-03T03:18:49;98777.31;;;5.49;100.00
43039;BME280;62252;50.668;19.530;2022-11-03T03:21:25;98775.72;;;5.72;100.00
43039;BME280;62252;50.668;19.530;2022-11-03T03:24:09;98768.28;;;5.33;100.00
43039;BME280;62252;50.668;19.530;2022-11-03T03:26:47;98764.47;;;5.43;100.00
43039;BME280;62252;50.668;19.530;2022-11-03T03:29:29;98772.81;;;5.26;100.00
43039;BME280;62252;50.668;19.530;2022-11-03T03:32:08;98774.69;;;4.31;100.00
43039;BME280;62252;50.668;19.530;2022-11-03T03:34:42;98775.91;;;4.50;100.00
43039;BME280;62252;50.668;19.530;2022-11-03T03:37:18;98781.13;;;4.16;100.00
43039;BME280;62252;50.668;19.530;2022-11-03T03:39:54;98785.81;;;4.36;100.00
43039;BME280;62252;50.668;19.530;2022-11-03T03:42:31;98782.13;;;4.44;100.00
43039;BME280;62252;50.668;19.530;2022-11-03T03:45:09;98786.72;;;4.35;100.00
43039;BME280;62252;50.668;19.530;2022-11-03T03:47:44;98788.44;;;4.36;100.00
43039;BME280;62252;50.668;19.530;2022-11-03T03:50:19;98783.13;;;4.40;100.00
43039;BME280;62252;50.668;19.530;2022-11-03T03:52:54;98791.16;;;4.31;100.00
43039;BME280;62252;50.668;19.530;2022-11-03T03:55:33;98782.09;;;4.46;100.00
43039;BME280;62252;50.668;19.530;2022-11-03T03:58:09;98785.72;;;4.40;100.00
43039;BME280;62252;50.668;19.530;2022-11-03T04:00:46;98788.88;;;4.51;100.00
43039;BME280;62252;50.668;19.530;2022-11-03T04:03:21;98776.44;;;4.30;100.00
43039;BME280;62252;50.668;19.530;2022-11-03T04:05:54;98785.91;;;4.33;100.00
43039;BME280;62252;50.668;19.530;2022-11-03T04:08:27;98776.22;;;4.38;100.00
43039;BME280;62252;50.668;19.530;2022-11-03T04:11:01;98776.97;;;4.09;100.00
43039;BME280;62252;50.668;19.530;2022-11-03T04:13:46;98781.59;;;3.98;100.00
43039;BME280;62252;50.668;19.530;2022-11-03T04:16:34;98773.56;;;4.39;100.00
43039;BME280;62252;50.668;19.530;2022-11-03T04:19:19;98775.03;;;4.49;100.00
43039;BME280;62252;50.668;19.530;2022-11-03T04:22:06;98767.03;;;4.57;100.00
43039;BME280;62252;50.668;19.530;2022-11-03T04:24:47;98769.88;;;4.48;100.00
43039;BME280;62252;50.668;19.530;2022-11-03T04:27:27;98766.88;;;4.61;100.00
43039;BME280;62252;50.668;19.530;2022-11-03T04:30:09;98761.97;;;4.51;100.00
43039;BME280;62252;50.668;19.530;2022-11-03T04:32:49;98759.38;;;4.51;100.00
43039;BME280;62252;50.668;19.530;2022-11-03T04:35:24;98767.94;;;4.24;100.00
43039;BME280;62252;50.668;19.530;2022-11-03T04:38:01;98760.31;;;4.48;100.00
43039;BME280;62252;50.668;19.530;2022-11-03T04:40:38;98769.78;;;4.19;100.00
43039;BME280;62252;50.668;19.530;2022-11-03T04:43:16;98765.56;;;4.15;100.00
43039;BME280;62252;50.668;19.530;2022-11-03T04:45:50;98769.78;;;3.85;100.00
43039;BME280;62252;50.668;19.530;2022-11-03T04:48:27;98764.88;;;3.35;100.00
43039;BME280;62252;50.668;19.530;2022-11-03T04:51:01;98763.38;;;3.63;100.00
43039;BME280;62252;50.668;19.530;2022-11-03T04:53:34;98755.63;;;3.60;100.00
43039;BME280;62252;50.668;19.530;2022-11-03T04:56:12;98757.13;;;3.34;100.00
43039;BME280;62252;50.668;19.530;2022-11-03T04:58:47;98756.97;;;3.41;100.00
43039;BME280;62252;50.668;19.530;2022-11-03T05:01:22;98756.09;;;3.41;100.00
43039;BME280;62252;50.668;19.530;2022-11-03T05:03:58;98751.03;;;4.06;100.00
43039;BME280;62252;50.668;19.530;2022-11-03T05:06:31;98755.16;;;3.80;100.00
43039;BME280;62252;50.668;19.530;2022-11-03T05:09:11;98760.41;;;4.12;100.00
43039;BME280;62252;50.668;19.530;2022-11-03T05:11:46;98757.03;;;4.10;100.00
43039;BME280;62252;50.668;19.530;2022-11-03T05:14:21;98757.41;;;3.58;100.00
43039;BME280;62252;50.668;19.530;2022-11-03T05:16:55;98761.09;;;3.86;100.00
43039;BME280;62252;50.668;19.530;2022-11-03T05:19:33;98750.03;;;3.77;100.00
43039;BME280;62252;50.668;19.530;2022-11-03T05:22:14;98750.00;;;4.12;100.00
43039;BME280;62252;50.668;19.530;2022-11-03T05:24:55;98760.91;;;3.57;100.00
43039;BME280;62252;50.668;19.530;2022-11-03T05:27:29;98755.09;;;3.46;100.00
43039;BME280;62252;50.668;19.530;2022-11-03T05:30:04;98754.91;;;3.55;100.00
43039;BME280;62252;50.668;19.530;2022-11-03T05:32:39;98756.50;;;3.96;100.00
43039;BME280;62252;50.668;19.530;2022-11-03T05:35:21;98757.38;;;3.23;100.00
43039;BME280;62252;50.668;19.530;2022-11-03T05:37:55;98761.66;;;3.26;100.00
43039;BME280;62252;50.668;19.530;2022-11-03T05:40:28;98761.09;;;3.12;100.00
43039;BME280;62252;50.668;19.530;2022-11-03T05:43:01;98761.88;;;3.17;100.00
43039;BME280;62252;50.668;19.530;2022-11-03T05:45:36;98752.75;;;3.36;100.00
43039;BME280;62252;50.668;19.530;2022-11-03T05:48:17;98756.56;;;3.58;100.00
43039;BME280;62252;50.668;19.530;2022-11-03T05:50:53;98748.66;;;3.26;100.00
43039;BME280;62252;50.668;19.530;2022-11-03T05:53:29;98755.97;;;3.47;100.00
43039;BME280;62252;50.668;19.530;2022-11-03T05:56:05;98760.34;;;3.07;100.00
43039;BME280;62252;50.668;19.530;2022-11-03T05:58:40;98754.94;;;3.54;100.00
43039;BME280;62252;50.668;19.530;2022-11-03T06:01:18;98756.75;;;3.49;100.00
43039;BME280;62252;50.668;19.530;2022-11-03T06:03:53;98752.69;;;3.39;100.00
43039;BME280;62252;50.668;19.530;2022-11-03T06:06:33;98758.66;;;4.14;100.00
43039;BME280;62252;50.668;19.530;2022-11-03T06:09:10;98761.44;;;4.06;100.00
43039;BME280;62252;50.668;19.530;2022-11-03T06:11:48;98763.13;;;4.09;100.00
43039;BME280;62252;50.668;19.530;2022-11-03T06:14:24;98763.41;;;4.30;100.00
43039;BME280;62252;50.668;19.530;2022-11-03T06:17:00;98770.00;;;3.75;100.00
43039;BME280;62252;50.668;19.530;2022-11-03T06:19:36;98769.06;;;4.46;100.00
43039;BME280;62252;50.668;19.530;2022-11-03T06:22:17;98762.13;;;4.45;100.00
43039;BME280;62252;50.668;19.530;2022-11-03T06:24:55;98769.91;;;4.77;100.00
43039;BME280;62252;50.668;19.530;2022-11-03T06:27:33;98773.22;;;4.53;100.00
43039;BME280;62252;50.668;19.530;2022-11-03T06:30:20;98774.50;;;4.69;100.00
43039;BME280;62252;50.668;19.530;2022-11-03T06:32:54;98773.97;;;4.87;100.00
43039;BME280;62252;50.668;19.530;2022-11-03T06:35:29;98775.28;;;4.71;100.00
43039;BME280;62252;50.668;19.530;2022-11-03T06:38:14;98770.47;;;4.88;100.00
43039;BME280;62252;50.668;19.530;2022-11-03T06:40:48;98762.28;;;5.00;100.00
43039;BME280;62252;50.668;19.530;2022-11-03T06:43:23;98773.53;;;5.02;100.00
43039;BME280;62252;50.668;19.530;2022-11-03T06:45:58;98769.88;;;5.09;100.00
43039;BME280;62252;50.668;19.530;2022-11-03T06:48:34;98767.63;;;5.25;100.00
43039;BME280;62252;50.668;19.530;2022-11-03T06:51:13;98769.13;;;5.04;100.00
43039;BME280;62252;50.668;19.530;2022-11-03T06:53:52;98773.03;;;5.19;100.00
43039;BME280;62252;50.668;19.530;2022-11-03T06:56:30;98768.69;;;5.47;100.00
43039;BME280;62252;50.668;19.530;2022-11-03T06:59:08;98765.41;;;5.40;100.00
43039;BME280;62252;50.668;19.530;2022-11-03T07:01:45;98766.72;;;5.55;100.00
43039;BME280;62252;50.668;19.530;2022-11-03T07:04:22;98753.94;;;5.46;100.00
43039;BME280;62252;50.668;19.530;2022-11-03T07:07:00;98758.16;;;5.50;100.00
43039;BME280;62252;50.668;19.530;2022-11-03T07:09:37;98757.38;;;5.48;100.00
43039;BME280;62252;50.668;19.530;2022-11-03T07:12:14;98752.63;;;5.86;100.00
43039;BME280;62252;50.668;19.530;2022-11-03T07:14:49;98750.16;;;6.08;100.00
43039;BME280;62252;50.668;19.530;2022-11-03T07:17:22;98759.69;;;5.83;100.00
43039;BME280;62252;50.668;19.530;2022-11-03T07:19:57;98754.63;;;5.78;100.00
43039;BME280;62252;50.668;19.530;2022-11-03T07:22:30;98754.50;;;6.07;100.00
43039;BME280;62252;50.668;19.530;2022-11-03T07:25:14;98759.03;;;6.02;100.00
43039;BME280;62252;50.668;19.530;2022-11-03T07:27:49;98755.41;;;6.32;100.00
43039;BME280;62252;50.668;19.530;2022-11-03T07:30:26;98749.19;;;6.36;100.00
43039;BME280;62252;50.668;19.530;2022-11-03T07:33:09;98746.47;;;6.13;100.00
43039;BME280;62252;50.668;19.530;2022-11-03T07:35:44;98736.03;;;6.13;100.00
43039;BME280;62252;50.668;19.530;2022-11-03T07:38:20;98737.91;;;6.36;100.00
43039;BME280;62252;50.668;19.530;2022-11-03T07:40:57;98741.47;;;6.58;100.00
43039;BME280;62252;50.668;19.530;2022-11-03T07:43:33;98738.44;;;7.14;100.00
43039;BME280;62252;50.668;19.530;2022-11-03T07:46:15;98736.81;;;6.66;100.00
43039;BME280;62252;50.668;19.530;2022-11-03T07:48:54;98737.84;;;6.85;100.00
43039;BME280;62252;50.668;19.530;2022-11-03T07:51:30;98716.97;;;6.83;100.00
43039;BME280;62252;50.668;19.530;2022-11-03T07:54:13;98730.72;;;6.88;100.00
43039;BME280;62252;50.668;19.530;2022-11-03T07:56:53;98731.59;;;6.89;100.00
43039;BME280;62252;50.668;19.530;2022-11-03T07:59:31;98730.34;;;6.99;100.00
43039;BME280;62252;50.668;19.530;2022-11-03T08:02:10;98723.16;;;7.04;100.00
43039;BME280;62252;50.668;19.530;2022-11-03T08:04:48;98719.19;;;7.38;100.00
43039;BME280;62252;50.668;19.530;2022-11-03T08:07:21;98719.19;;;7.60;100.00
43039;BME280;62252;50.668;19.530;2022-11-03T08:09:55;98721.59;;;7.21;100.00
43039;BME280;62252;50.668;19.530;2022-11-03T08:12:30;98723.44;;;7.19;100.00
43039;BME280;62252;50.668;19.530;2022-11-03T08:15:05;98715.38;;;7.47;100.00
43039;BME280;62252;50.668;19.530;2022-11-03T08:17:38;98716.22;;;7.69;100.00
43039;BME280;62252;50.668;19.530;2022-11-03T08:20:11;98720.38;;;7.51;100.00
43039;BME280;62252;50.668;19.530;2022-11-03T08:22:45;98717.84;;;7.71;100.00
43039;BME280;62252;50.668;19.530;2022-11-03T08:25:18;98718.50;;;7.76;100.00
43039;BME280;62252;50.668;19.530;2022-11-03T08:27:53;98713.84;;;7.83;100.00
43039;BME280;62252;50.668;19.530;2022-11-03T08:30:27;98706.66;;;8.09;100.00
43039;BME280;62252;50.668;19.530;2022-11-03T08:33:02;98705.53;;;8.15;100.00
43039;BME280;62252;50.668;19.530;2022-11-03T08:35:35;98703.00;;;8.33;100.00
43039;BME280;62252;50.668;19.530;2022-11-03T08:38:09;98705.63;;;8.33;100.00
43039;BME280;62252;50.668;19.530;2022-11-03T08:40:42;98696.03;;;8.32;100.00
43039;BME280;62252;50.668;19.530;2022-11-03T08:43:18;98695.63;;;8.21;100.00
43039;BME280;62252;50.668;19.530;2022-11-03T08:45:51;98699.31;;;8.38;100.00
43039;BME280;62252;50.668;19.530;2022-11-03T08:48:26;98693.16;;;8.38;100.00
43039;BME280;62252;50.668;19.530;2022-11-03T08:50:59;98690.97;;;8.48;100.00
43039;BME280;62252;50.668;19.530;2022-11-03T08:53:33;98683.81;;;8.90;100.00
43039;BME280;62252;50.668;19.530;2022-11-03T08:56:12;98686.09;;;8.59;100.00
43039;BME280;62252;50.668;19.530;2022-11-03T08:58:48;98671.38;;;8.57;100.00
43039;BME280;62252;50.668;19.530;2022-11-03T09:01:24;98668.31;;;8.66;100.00
43039;BME280;62252;50.668;19.530;2022-11-03T09:04:08;98671.50;;;8.54;100.00
43039;BME280;62252;50.668;19.530;2022-11-03T09:06:42;98673.44;;;8.50;100.00
43039;BME280;62252;50.668;19.530;2022-11-03T09:09:15;98673.00;;;8.41;100.00
43039;BME280;62252;50.668;19.530;2022-11-03T09:11:48;98674.25;;;8.51;100.00
43039;BME280;62252;50.668;19.530;2022-11-03T09:14:24;98664.94;;;8.64;100.00
43039;BME280;62252;50.668;19.530;2022-11-03T09:16:57;98662.47;;;8.79;100.00
43039;BME280;62252;50.668;19.530;2022-11-03T09:19:30;98661.38;;;8.65;100.00
43039;BME280;62252;50.668;19.530;2022-11-03T09:22:03;98654.81;;;8.75;100.00
43039;BME280;62252;50.668;19.530;2022-11-03T09:24:37;98649.38;;;8.79;100.00
43039;BME280;62252;50.668;19.530;2022-11-03T09:27:10;98649.34;;;8.61;100.00
43039;BME280;62252;50.668;19.530;2022-11-03T09:29:46;98650.94;;;8.83;100.00
43039;BME280;62252;50.668;19.530;2022-11-03T09:32:19;98646.66;;;8.81;100.00
43039;BME280;62252;50.668;19.530;2022-11-03T09:34:52;98648.78;;;8.91;100.00
43039;BME280;62252;50.668;19.530;2022-11-03T09:37:26;98645.88;;;8.97;100.00
43039;BME280;62252;50.668;19.530;2022-11-03T09:39:59;98647.78;;;8.94;100.00
43039;BME280;62252;50.668;19.530;2022-11-03T09:42:33;98630.44;;;8.91;100.00
43039;BME280;62252;50.668;19.530;2022-11-03T09:45:10;98633.81;;;9.12;100.00
43039;BME280;62252;50.668;19.530;2022-11-03T09:47:45;98628.78;;;9.43;100.00
43039;BME280;62252;50.668;19.530;2022-11-03T09:50:19;98631.88;;;9.15;100.00
43039;BME280;62252;50.668;19.530;2022-11-03T09:52:53;98625.06;;;9.30;100.00
43039;BME280;62252;50.668;19.530;2022-11-03T09:55:26;98617.53;;;9.22;100.00
43039;BME280;62252;50.668;19.530;2022-11-03T09:58:01;98627.34;;;9.19;100.00
43039;BME280;62252;50.668;19.530;2022-11-03T10:00:47;98613.09;;;9.41;100.00
43039;BME280;62252;50.668;19.530;2022-11-03T10:03:21;98604.00;;;9.48;100.00
43039;BME280;62252;50.668;19.530;2022-11-03T10:05:58;98596.84;;;9.69;100.00
43039;BME280;62252;50.668;19.530;2022-11-03T10:08:32;98599.28;;;9.38;100.00
43039;BME280;62252;50.668;19.530;2022-11-03T10:11:07;98594.09;;;9.36;100.00
43039;BME280;62252;50.668;19.530;2022-11-03T10:13:43;98594.28;;;9.50;100.00
43039;BME280;62252;50.668;19.530;2022-11-03T10:16:22;98584.31;;;9.57;100.00
43039;BME280;62252;50.668;19.530;2022-11-03T10:18:57;98579.84;;;9.42;100.00
43039;BME280;62252;50.668;19.530;2022-11-03T10:21:31;98576.03;;;9.66;100.00
43039;BME280;62252;50.668;19.530;2022-11-03T10:24:07;98582.53;;;9.40;100.00
43039;BME280;62252;50.668;19.530;2022-11-03T10:26:43;98573.06;;;9.19;100.00
43039;BME280;62252;50.668;19.530;2022-11-03T10:29:19;98570.94;;;9.63;100.00
43039;BME280;62252;50.668;19.530;2022-11-03T10:31:58;98563.00;;;9.80;100.00
43039;BME280;62252;50.668;19.530;2022-11-03T10:34:33;98561.09;;;9.66;100.00
43039;BME280;62252;50.668;19.530;2022-11-03T10:37:15;98556.72;;;9.67;100.00
43039;BME280;62252;50.668;19.530;2022-11-03T10:39:51;98559.34;;;9.67;100.00
43039;BME280;62252;50.668;19.530;2022-11-03T10:42:26;98561.03;;;9.85;100.00
43039;BME280;62252;50.668;19.530;2022-11-03T10:45:10;98559.25;;;9.68;100.00
43039;BME280;62252;50.668;19.530;2022-11-03T10:47:58;98542.94;;;9.96;100.00
43039;BME280;62252;50.668;19.530;2022-11-03T10:50:32;98557.91;;;9.60;100.00
43039;BME280;62252;50.668;19.530;2022-11-03T10:53:14;98553.75;;;9.90;100.00
43039;BME280;62252;50.668;19.530;2022-11-03T10:55:49;98550.28;;;9.72;100.00
43039;BME280;62252;50.668;19.530;2022-11-03T10:58:22;98544.31;;;9.35;100.00
43039;BME280;62252;50.668;19.530;2022-11-03T11:00:56;98538.75;;;9.58;100.00
43039;BME280;62252;50.668;19.530;2022-11-03T11:03:34;98530.75;;;10.10;100.00
43039;BME280;62252;50.668;19.530;2022-11-03T11:06:23;98526.13;;;10.31;100.00
43039;BME280;62252;50.668;19.530;2022-11-03T11:09:00;98529.50;;;10.17;100.00
43039;BME280;62252;50.668;19.530;2022-11-03T11:11:34;98527.44;;;10.07;100.00
43039;BME280;62252;50.668;19.530;2022-11-03T11:14:21;98511.53;;;10.41;99.38
43039;BME280;62252;50.668;19.530;2022-11-03T11:16:55;98507.50;;;10.51;100.00
43039;BME280;62252;50.668;19.530;2022-11-03T11:22:44;98494.03;;;10.09;98.14
43039;BME280;62252;50.668;19.530;2022-11-03T11:25:18;98487.69;;;10.13;93.56
43039;BME280;62252;50.668;19.530;2022-11-03T11:27:55;98480.91;;;10.09;94.36
43039;BME280;62252;50.668;19.530;2022-11-03T11:33:34;98470.66;;;10.20;97.80
43039;BME280;62252;50.668;19.530;2022-11-03T11:36:27;98471.44;;;10.22;96.79
43039;BME280;62252;50.668;19.530;2022-11-03T11:39:02;98466.41;;;10.17;94.86
43039;BME280;62252;50.668;19.530;2022-11-03T11:42:05;98469.72;;;10.36;96.35
43039;BME280;62252;50.668;19.530;2022-11-03T11:47:52;98454.28;;;9.99;94.87
43039;BME280;62252;50.668;19.530;2022-11-03T11:50:30;98441.16;;;10.15;94.38
43039;BME280;62252;50.668;19.530;2022-11-03T11:53:09;98423.00;;;10.26;98.95
43039;BME280;62252;50.668;19.530;2022-11-03T11:55:47;98428.34;;;10.24;94.39
43039;BME280;62252;50.668;19.530;2022-11-03T11:58:29;98424.53;;;10.14;98.17
43039;BME280;62252;50.668;19.530;2022-11-03T12:01:19;98414.09;;;10.28;98.64
43039;BME280;62252;50.668;19.530;2022-11-03T12:03:56;98408.84;;;10.13;100.00
43039;BME280;62252;50.668;19.530;2022-11-03T12:06:33;98393.25;;;10.10;94.36
43039;BME280;62252;50.668;19.530;2022-11-03T12:09:16;98391.38;;;10.27;95.39
43039;BME280;62252;50.668;19.530;2022-11-03T12:11:50;98397.66;;;10.25;99.24
43039;BME280;62252;50.668;19.530;2022-11-03T12:14:25;98397.06;;;10.20;100.00
43039;BME280;62252;50.668;19.530;2022-11-03T12:17:31;98390.13;;;10.19;98.46
43039;BME280;62252;50.668;19.530;2022-11-03T12:20:42;98376.28;;;10.15;95.55
43039;BME280;62252;50.668;19.530;2022-11-03T12:23:36;98371.63;;;10.05;93.32
43039;BME280;62252;50.668;19.530;2022-11-03T12:26:39;98369.72;;;10.08;94.83
43039;BME280;62252;50.668;19.530;2022-11-03T12:29:12;98364.19;;;9.97;97.53
43039;BME280;62252;50.668;19.530;2022-11-03T12:31:46;98367.41;;;10.02;100.00
43039;BME280;62252;50.668;19.530;2022-11-03T12:34:19;98356.81;;;10.19;100.00
43039;BME280;62252;50.668;19.530;2022-11-03T12:36:53;98359.69;;;10.15;99.69
43039;BME280;62252;50.668;19.530;2022-11-03T12:39:26;98352.47;;;10.18;97.80
43039;BME280;62252;50.668;19.530;2022-11-03T12:42:02;98350.38;;;10.25;92.88
43039;BME280;62252;50.668;19.530;2022-11-03T12:44:35;98348.94;;;10.04;95.12
43039;BME280;62252;50.668;19.530;2022-11-03T12:47:08;98345.81;;;9.97;97.86
43039;BME280;62252;50.668;19.530;2022-11-03T12:49:42;98339.84;;;10.09;98.96
43039;BME280;62252;50.668;19.530;2022-11-03T12:52:15;98330.88;;;9.98;100.00
43039;BME280;62252;50.668;19.530;2022-11-03T12:54:48;98333.25;;;10.18;98.61
43039;BME280;62252;50.668;19.530;2022-11-03T12:57:25;98335.97;;;10.16;95.91
43039;BME280;62252;50.668;19.530;2022-11-03T12:59:58;98328.50;;;10.09;96.37
43039;BME280;62252;50.668;19.530;2022-11-03T13:02:31;98323.59;;;10.03;94.92
43039;BME280;62252;50.668;19.530;2022-11-03T13:05:05;98323.00;;;9.98;95.23
43039;BME280;62252;50.668;19.530;2022-11-03T13:07:43;98319.00;;;10.06;96.80
43039;BME280;62252;50.668;19.530;2022-11-03T13:10:17;98319.16;;;10.19;99.90
43039;BME280;62252;50.668;19.530;2022-11-03T13:12:53;98312.31;;;10.01;100.00
43039;BME280;62252;50.668;19.530;2022-11-03T13:15:26;98317.47;;;9.87;100.00
43039;BME280;62252;50.668;19.530;2022-11-03T13:17:59;98301.19;;;10.11;100.00
43039;BME280;62252;50.668;19.530;2022-11-03T13:20:34;98313.09;;;9.87;100.00
43039;BME280;62252;50.668;19.530;2022-11-03T13:23:08;98307.66;;;9.90;100.00
43039;BME280;62252;50.668;19.530;2022-11-03T13:25:41;98306.56;;;9.63;100.00
43039;BME280;62252;50.668;19.530;2022-11-03T13:28:19;98306.56;;;9.63;100.00
43039;BME280;62252;50.668;19.530;2022-11-03T13:30:52;98296.31;;;9.74;100.00
43039;BME280;62252;50.668;19.530;2022-11-03T13:33:25;98295.13;;;9.80;100.00
43039;BME280;62252;50.668;19.530;2022-11-03T13:35:59;98294.13;;;9.67;100.00
43039;BME280;62252;50.668;19.530;2022-11-03T13:38:32;98293.41;;;9.63;100.00
43039;BME280;62252;50.668;19.530;2022-11-03T13:41:07;98290.56;;;9.68;100.00
43039;BME280;62252;50.668;19.530;2022-11-03T13:43:43;98288.56;;;9.56;100.00
43039;BME280;62252;50.668;19.530;2022-11-03T13:46:17;98287.06;;;9.67;100.00
43039;BME280;62252;50.668;19.530;2022-11-03T13:48:50;98283.25;;;9.57;100.00
43039;BME280;62252;50.668;19.530;2022-11-03T13:51:23;98284.00;;;9.59;100.00
43039;BME280;62252;50.668;19.530;2022-11-03T13:53:59;98291.25;;;9.71;100.00